Time;durP1;ratioP1;P1;durP2;ratioP2;P2;SDS_P1;SDS_P2;PMS_P1;PMS_P2;Temp;Humidity;BMP_temperature;BMP_pressure;BME280_temperature;BME280_humidity;BME280_pressure;Samples;Min_cycle;Max_cycle;Signal;HPM_P1;HPM_P2
2022/06/03 00:02:42;;;;;;;1.10;1.10;;;;;;;;;;5056902;28;20280;-87
2022/06/03 00:05:51;;;;;;;1.65;1.23;;;;;;;;;;5056622;28;20244;-86
2022/06/03 00:08:57;;;;;;;1.48;0.93;;;;;;;;;;5017907;28;20301;-85
2022/06/03 00:12:05;;;;;;;1.10;1.10;;;;;;;;;;5052131;28;20197;-86
2022/06/03 00:14:52;;;;;;;1.00;1.00;;;;;;;;;;5057185;28;20259;-85
2022/06/03 00:17:44;;;;;;;1.10;1.10;;;;;;;;;;5057222;28;20236;-85
2022/06/03 00:20:26;;;;;;;1.15;1.15;;;;;;;;;;5056827;28;20285;-84
2022/06/03 00:23:21;;;;;;;1.15;1.10;;;;;;;;;;5056385;28;20289;-85
2022/06/03 00:26:15;;;;;;;1.42;1.20;;;;;;;;;;5042932;28;20724;-85
2022/06/03 00:29:16;;;;;;;1.67;1.58;;;;;;;;;;5056455;28;20313;-85
2022/06/03 00:32:12;;;;;;;0.90;0.90;;;;;;;;;;5056867;28;20288;-87
2022/06/03 00:35:12;;;;;;;1.15;1.15;;;;;;;;;;5057242;28;20316;-86
2022/06/03 00:37:47;;;;;;;1.00;1.00;;;;;;;;;;5056915;28;20217;-86
2022/06/03 00:40:41;;;;;;;1.10;1.10;;;;;;;;;;5056274;28;20713;-84
2022/06/03 00:43:38;;;;;;;1.40;1.30;;;;;;;;;;5055514;28;20206;-87
2022/06/03 00:46:35;;;;;;;1.30;1.30;;;;;;;;;;5057272;28;20201;-85
2022/06/03 00:49:31;;;;;;;1.13;1.13;;;;;;;;;;5055887;28;20234;-84
2022/06/03 00:52:48;;;;;;;1.42;1.33;;;;;;;;;;5055032;28;20609;-85
2022/06/03 00:55:52;;;;;;;1.23;1.23;;;;;;;;;;5002096;28;20653;-86
2022/06/03 00:58:38;;;;;;;1.05;1.05;;;;;;;;;;5022535;28;20251;-84
2022/06/03 01:01:13;;;;;;;1.15;1.15;;;;;;;;;;5055718;28;20268;-86
2022/06/03 01:04:32;;;;;;;3.50;1.50;;;;;;;;;;5056262;28;20234;-85
2022/06/03 01:07:13;;;;;;;1.20;1.10;;;;;;;;;;4997203;28;20231;-87
2022/06/03 01:10:04;;;;;;;1.10;1.10;;;;;;;;;;5056437;28;20213;-86
2022/06/03 01:12:53;;;;;;;1.33;1.23;;;;;;;;;;5056255;28;20308;-86
2022/06/03 01:15:31;;;;;;;1.10;1.10;;;;;;;;;;5056514;28;20737;-87
2022/06/03 01:18:21;;;;;;;1.60;1.50;;;;;;;;;;5056947;28;20197;-87
2022/06/03 01:21:08;;;;;;;2.00;1.52;;;;;;;;;;5056928;28;20261;-85
2022/06/03 01:24:03;;;;;;;1.60;1.50;;;;;;;;;;5056753;28;20224;-85
2022/06/03 01:26:44;;;;;;;1.50;1.40;;;;;;;;;;5056466;28;20323;-86
2022/06/03 01:29:36;;;;;;;4.68;1.52;;;;;;;;;;5056862;28;20550;-86
2022/06/03 01:32:47;;;;;;;1.30;1.20;;;;;;;;;;5056853;28;20227;-84
2022/06/03 01:35:52;;;;;;;1.60;1.50;;;;;;;;;;5056885;28;20293;-85
2022/06/03 01:38:39;;;;;;;2.15;1.30;;;;;;;;;;5019191;28;20288;-85
2022/06/03 01:41:23;;;;;;;2.42;1.20;;;;;;;;;;5055502;28;20202;-85
2022/06/03 01:44:11;;;;;;;1.35;1.35;;;;;;;;;;5056560;28;20204;-84
2022/06/03 01:46:41;;;;;;;1.38;1.27;;;;;;;;;;5056728;28;20289;-86
2022/06/03 01:49:56;;;;;;;1.40;1.30;;;;;;;;;;5056707;28;20269;-84
2022/06/03 01:52:43;;;;;;;1.67;1.58;;;;;;;;;;5057189;28;20225;-86
2022/06/03 01:55:45;;;;;;;1.08;1.08;;;;;;;;;;5056452;28;20634;-88
2022/06/03 01:58:43;;;;;;;1.20;1.20;;;;;;;;;;5056579;28;20201;-85
2022/06/03 02:01:55;;;;;;;1.45;1.27;;;;;;;;;;5047420;28;20713;-87
2022/06/03 02:04:42;;;;;;;1.90;1.80;;;;;;;;;;5026443;28;20283;-84
2022/06/03 02:07:35;;;;;;;1.48;1.33;;;;;;;;;;5060034;28;20272;-84
2022/06/03 02:10:32;;;;;;;1.23;1.23;;;;;;;;;;5058988;28;20308;-83
2022/06/03 02:13:49;;;;;;;1.63;1.55;;;;;;;;;;5059372;28;20186;-83
2022/06/03 02:16:53;;;;;;;2.00;1.65;;;;;;;;;;5047462;28;20257;-82
2022/06/03 02:20:15;;;;;;;1.15;1.15;;;;;;;;;;5059409;28;20221;-84
2022/06/03 02:23:29;;;;;;;1.48;1.38;;;;;;;;;;5059263;28;20193;-84
2022/06/03 02:26:37;;;;;;;1.13;1.13;;;;;;;;;;5057595;28;20202;-83
2022/06/03 02:33:23;;;;;;;1.45;1.35;;;;;;;;;;5055990;28;20209;-82
2022/06/03 02:36:29;;;;;;;1.20;1.20;;;;;;;;;;5059722;28;20210;-84
2022/06/03 02:39:09;;;;;;;1.35;1.25;;;;;;;;;;5058710;28;20304;-83
2022/06/03 02:42:05;;;;;;;1.45;1.35;;;;;;;;;;5058512;28;20193;-83
2022/06/03 02:44:53;;;;;;;1.40;1.30;;;;;;;;;;5058522;28;20214;-85
2022/06/03 02:48:23;;;;;;;1.40;1.40;;;;;;;;;;5058644;28;20268;-84
2022/06/03 02:51:27;;;;;;;1.52;1.42;;;;;;;;;;5058811;28;20237;-84
2022/06/03 02:54:29;;;;;;;1.50;1.40;;;;;;;;;;5053866;28;20288;-84
2022/06/03 02:57:24;;;;;;;1.40;1.30;;;;;;;;;;5055085;28;20217;-84
2022/06/03 03:00:20;;;;;;;1.52;1.42;;;;;;;;;;5058117;28;20232;-84
2022/06/03 03:03:17;;;;;;;1.63;1.52;;;;;;;;;;5058595;28;20214;-84
2022/06/03 03:06:40;;;;;;;1.73;1.63;;;;;;;;;;5058869;28;20232;-81
2022/06/03 03:09:28;;;;;;;1.50;1.40;;;;;;;;;;5038504;28;20225;-84
2022/06/03 03:13:06;;;;;;;1.45;1.40;;;;;;;;;;5056618;28;20689;-82
2022/06/03 03:16:10;;;;;;;1.42;1.33;;;;;;;;;;4975439;28;20219;-84
2022/06/03 03:19:38;;;;;;;1.38;1.23;;;;;;;;;;5056978;28;20189;-84
2022/06/03 03:22:32;;;;;;;1.50;1.40;;;;;;;;;;5041260;28;20204;-83
2022/06/03 03:25:42;;;;;;;2.00;1.52;;;;;;;;;;5056520;28;20216;-84
2022/06/03 03:28:56;;;;;;;1.58;1.48;;;;;;;;;;5056693;28;20712;-83
2022/06/03 03:31:46;;;;;;;1.50;1.40;;;;;;;;;;5056063;28;20210;-82
2022/06/03 03:34:28;;;;;;;1.60;1.50;;;;;;;;;;5056950;28;20186;-82
2022/06/03 03:37:48;;;;;;;1.25;1.25;;;;;;;;;;5056159;28;20646;-82
2022/06/03 03:41:03;;;;;;;1.48;1.38;;;;;;;;;;5035232;28;20646;-84
2022/06/03 03:44:27;;;;;;;1.42;1.33;;;;;;;;;;5056302;28;20233;-82
2022/06/03 03:47:38;;;;;;;1.27;1.20;;;;;;;;;;5023101;28;20242;-83
2022/06/03 03:50:47;;;;;;;1.70;1.60;;;;;;;;;;5056701;28;20256;-82
2022/06/03 03:54:07;;;;;;;1.35;1.25;;;;;;;;;;5056001;28;20237;-85
2022/06/03 03:57:43;;;;;;;1.95;1.60;;;;;;;;;;5055826;28;20657;-86
2022/06/03 04:00:53;;;;;;;1.80;1.70;;;;;;;;;;5029501;28;20217;-86
2022/06/03 04:03:59;;;;;;;1.58;1.48;;;;;;;;;;5041177;28;20229;-85
2022/06/03 04:06:55;;;;;;;1.45;1.30;;;;;;;;;;5043708;28;20651;-86
2022/06/03 04:10:08;;;;;;;1.88;1.77;;;;;;;;;;5057067;28;20233;-86
2022/06/03 04:13:07;;;;;;;2.53;1.83;;;;;;;;;;5057999;28;20214;-86
2022/06/03 04:16:18;;;;;;;1.50;1.40;;;;;;;;;;5057405;28;20186;-88
2022/06/03 04:19:25;;;;;;;1.65;1.55;;;;;;;;;;5027330;28;20257;-85
2022/06/03 04:22:22;;;;;;;1.85;1.75;;;;;;;;;;5057741;28;20548;-86
2022/06/03 04:25:33;;;;;;;1.95;1.75;;;;;;;;;;5057755;28;20212;-83
2022/06/03 04:28:42;;;;;;;2.05;1.95;;;;;;;;;;5050968;28;20201;-85
2022/06/03 04:31:52;;;;;;;3.42;1.60;;;;;;;;;;5055085;28;20224;-83
2022/06/03 04:35:23;;;;;;;1.70;1.60;;;;;;;;;;5056905;28;20228;-84
2022/06/03 04:38:46;;;;;;;1.70;1.60;;;;;;;;;;4994501;28;20223;-87
2022/06/03 04:42:24;;;;;;;1.80;1.70;;;;;;;;;;5014808;28;20225;-86
2022/06/03 04:46:05;;;;;;;1.83;1.73;;;;;;;;;;5055486;28;20249;-88
2022/06/03 04:49:17;;;;;;;1.40;1.30;;;;;;;;;;4974496;28;20630;-87
2022/06/03 04:52:35;;;;;;;1.42;1.40;;;;;;;;;;5055358;28;20263;-83
2022/06/03 04:55:49;;;;;;;1.83;1.73;;;;;;;;;;5055956;28;20233;-84
2022/06/03 04:59:22;;;;;;;1.80;1.65;;;;;;;;;;4999792;28;20687;-84
2022/06/03 05:02:50;;;;;;;1.90;1.80;;;;;;;;;;5031319;28;20225;-80
2022/06/03 05:06:00;;;;;;;2.00;1.77;;;;;;;;;;4994558;28;20212;-85
2022/06/03 05:09:19;;;;;;;1.67;1.58;;;;;;;;;;5035857;28;20527;-84
2022/06/03 05:12:48;;;;;;;1.65;1.55;;;;;;;;;;5035482;28;20190;-85
2022/06/03 05:16:22;;;;;;;2.20;2.05;;;;;;;;;;5037169;28;20201;-83
2022/06/03 05:19:41;;;;;;;2.13;1.92;;;;;;;;;;5036402;28;20265;-85
2022/06/03 05:22:50;;;;;;;2.17;2.00;;;;;;;;;;5034768;28;20222;-86
2022/06/03 05:26:24;;;;;;;2.65;2.05;;;;;;;;;;5033837;28;20234;-85
2022/06/03 05:29:40;;;;;;;2.15;1.95;;;;;;;;;;5034498;28;20668;-86
2022/06/03 05:32:49;;;;;;;2.50;2.30;;;;;;;;;;5034915;28;20217;-84
2022/06/03 05:35:46;;;;;;;2.00;1.90;;;;;;;;;;5035704;28;20222;-85
2022/06/03 05:39:20;;;;;;;2.47;2.28;;;;;;;;;;5035650;28;20238;-84
2022/06/03 05:42:28;;;;;;;1.90;1.80;;;;;;;;;;5017584;28;20237;-86
2022/06/03 05:45:46;;;;;;;1.95;1.85;;;;;;;;;;5034924;28;20194;-86
2022/06/03 05:48:22;;;;;;;2.35;2.25;;;;;;;;;;5034845;28;20216;-84
2022/06/03 05:50:58;;;;;;;1.90;1.80;;;;;;;;;;5035792;28;20245;-84
2022/06/03 05:53:39;;;;;;;1.77;1.67;;;;;;;;;;5035200;28;20283;-84
2022/06/03 05:56:43;;;;;;;1.95;1.70;;;;;;;;;;5036611;28;20190;-86
2022/06/03 05:59:20;;;;;;;1.95;1.85;;;;;;;;;;5035351;28;20236;-83
2022/06/03 06:02:09;;;;;;;2.47;2.33;;;;;;;;;;5036108;28;20214;-84
2022/06/03 06:04:54;;;;;;;2.17;1.83;;;;;;;;;;5034096;28;20222;-86
2022/06/03 06:07:28;;;;;;;1.70;1.60;;;;;;;;;;5035038;28;20218;-87
2022/06/03 06:10:00;;;;;;;1.92;1.83;;;;;;;;;;5033503;28;20255;-86
2022/06/03 06:12:45;;;;;;;2.83;1.60;;;;;;;;;;5034293;28;20230;-87
2022/06/03 06:15:51;;;;;;;1.77;1.67;;;;;;;;;;5034463;28;20543;-86
2022/06/03 06:18:26;;;;;;;1.70;1.60;;;;;;;;;;5034699;28;20272;-86
2022/06/03 06:21:04;;;;;;;1.80;1.70;;;;;;;;;;5034236;28;20193;-85
2022/06/03 06:23:42;;;;;;;1.67;1.58;;;;;;;;;;5034567;28;20210;-84
2022/06/03 06:26:42;;;;;;;1.65;1.55;;;;;;;;;;5034299;28;20602;-84
2022/06/03 06:29:55;;;;;;;1.58;1.48;;;;;;;;;;5034544;28;20254;-85
2022/06/03 06:32:37;;;;;;;1.52;1.42;;;;;;;;;;5017762;28;20203;-87
2022/06/03 06:36:00;;;;;;;1.90;1.80;;;;;;;;;;5034533;28;20679;-86
2022/06/03 06:38:36;;;;;;;1.40;1.30;;;;;;;;;;4972199;28;20260;-86
2022/06/03 06:41:21;;;;;;;1.60;1.50;;;;;;;;;;5024700;28;20268;-86
2022/06/03 06:43:54;;;;;;;1.65;1.55;;;;;;;;;;5034567;28;20281;-84
2022/06/03 06:46:30;;;;;;;1.30;1.30;;;;;;;;;;5035749;28;20237;-86
2022/06/03 06:49:13;;;;;;;1.65;1.55;;;;;;;;;;5038302;28;20741;-86
2022/06/03 06:52:12;;;;;;;1.20;1.20;;;;;;;;;;5037502;28;20193;-84
2022/06/03 06:54:55;;;;;;;1.23;1.23;;;;;;;;;;5037023;28;20594;-85
2022/06/03 06:57:25;;;;;;;1.45;1.35;;;;;;;;;;5036995;28;20242;-85
2022/06/03 06:59:59;;;;;;;1.45;1.35;;;;;;;;;;5038010;28;20234;-85
2022/06/03 07:02:31;;;;;;;1.20;1.20;;;;;;;;;;5053276;28;20205;-86
2022/06/03 07:05:03;;;;;;;2.88;1.90;;;;;;;;;;5058962;28;20272;-85
2022/06/03 07:07:38;;;;;;;1.30;1.10;;;;;;;;;;5059141;28;20205;-86
2022/06/03 07:10:12;;;;;;;1.20;1.20;;;;;;;;;;5060257;28;20220;-86
2022/06/03 07:12:46;;;;;;;1.70;1.48;;;;;;;;;;5060275;28;20182;-85
2022/06/03 07:15:16;;;;;;;1.35;1.27;;;;;;;;;;5058176;28;20232;-85
2022/06/03 07:20:48;;;;;;;1.00;1.00;;;;;;;;;;5059314;28;20221;-86
2022/06/03 07:23:24;;;;;;;1.45;1.45;;;;;;;;;;5056827;28;20217;-85
2022/06/03 07:25:58;;;;;;;1.20;1.10;;;;;;;;;;5058161;28;20428;-85
2022/06/03 07:28:40;;;;;;;1.52;1.20;;;;;;;;;;5057274;28;20216;-85
2022/06/03 07:31:16;;;;;;;1.10;1.10;;;;;;;;;;5057288;28;20186;-85
2022/06/03 07:33:54;;;;;;;1.10;1.10;;;;;;;;;;5057885;28;20228;-86
2022/06/03 07:36:35;;;;;;;0.80;0.80;;;;;;;;;;5056694;28;20596;-85
2022/06/03 07:39:28;;;;;;;1.00;1.00;;;;;;;;;;5061321;28;20230;-86
2022/06/03 07:42:06;;;;;;;0.63;0.63;;;;;;;;;;5062521;28;20194;-86
2022/06/03 07:44:45;;;;;;;0.80;0.80;;;;;;;;;;5062821;28;20229;-87
2022/06/03 07:47:15;;;;;;;1.13;1.13;;;;;;;;;;5057628;28;20300;-87
2022/06/03 07:49:52;;;;;;;1.17;1.17;;;;;;;;;;5062310;28;20226;-86
2022/06/03 07:52:34;;;;;;;1.42;1.33;;;;;;;;;;5046846;28;20229;-86
2022/06/03 07:55:11;;;;;;;1.13;1.13;;;;;;;;;;5061535;28;20666;-87
2022/06/03 07:57:40;;;;;;;1.00;1.00;;;;;;;;;;5059537;28;20240;-87
2022/06/03 08:00:16;;;;;;;1.00;1.00;;;;;;;;;;5082642;28;20244;-87
2022/06/03 08:02:44;;;;;;;1.38;1.33;;;;;;;;;;5075707;28;20260;-87
2022/06/03 08:05:16;;;;;;;1.00;0.88;;;;;;;;;;5054460;28;20236;-88
2022/06/03 08:13:23;;;;;;;0.90;0.90;;;;;;;;;;5053966;28;20188;-88
2022/06/03 08:15:56;;;;;;;0.85;0.85;;;;;;;;;;5055037;28;20225;-89
2022/06/03 08:18:25;;;;;;;1.23;1.23;;;;;;;;;;5054598;28;20283;-88
2022/06/03 08:20:57;;;;;;;1.02;1.02;;;;;;;;;;5054402;28;20305;-87
2022/06/03 08:23:30;;;;;;;1.00;1.00;;;;;;;;;;5054305;28;20213;-88
2022/06/03 08:26:00;;;;;;;1.15;1.08;;;;;;;;;;5056878;28;20269;-88
2022/06/03 08:28:34;;;;;;;1.10;1.10;;;;;;;;;;5054890;28;20202;-87
2022/06/03 08:31:04;;;;;;;1.02;1.00;;;;;;;;;;5054692;28;20178;-87
2022/06/03 08:33:39;;;;;;;1.00;1.00;;;;;;;;;;5053600;28;20198;-87
2022/06/03 08:36:08;;;;;;;1.00;1.00;;;;;;;;;;5054436;28;20263;-87
2022/06/03 08:38:41;;;;;;;0.98;0.98;;;;;;;;;;5054156;28;20275;-88
2022/06/03 08:41:24;;;;;;;0.88;0.88;;;;;;;;;;5058796;28;20611;-87
2022/06/03 08:44:21;;;;;;;1.05;1.05;;;;;;;;;;5056544;28;20834;-87
2022/06/03 08:47:02;;;;;;;0.80;0.80;;;;;;;;;;5034020;28;20190;-88
2022/06/03 08:49:47;;;;;;;0.70;0.70;;;;;;;;;;5051811;28;20243;-89
2022/06/03 08:52:16;;;;;;;0.90;0.90;;;;;;;;;;5054315;28;20205;-87
2022/06/03 08:54:48;;;;;;;1.08;1.00;;;;;;;;;;5054577;28;20293;-88
2022/06/03 08:57:21;;;;;;;1.10;1.00;;;;;;;;;;5053910;28;20214;-88
2022/06/03 09:00:02;;;;;;;1.00;0.95;;;;;;;;;;5058700;28;20255;-87
2022/06/03 09:02:33;;;;;;;0.88;0.88;;;;;;;;;;5057514;28;20232;-87
2022/06/03 09:05:05;;;;;;;0.82;0.82;;;;;;;;;;5054773;28;20232;-86
2022/06/03 09:07:40;;;;;;;1.20;1.10;;;;;;;;;;5054771;28;20255;-86
2022/06/03 09:10:15;;;;;;;1.00;1.00;;;;;;;;;;5055200;28;20222;-87
2022/06/03 09:12:53;;;;;;;1.10;0.93;;;;;;;;;;5054275;28;20208;-87
2022/06/03 09:15:25;;;;;;;0.98;0.98;;;;;;;;;;5054707;28;20229;-89
2022/06/03 09:17:58;;;;;;;1.00;1.00;;;;;;;;;;5053521;28;20201;-88
2022/06/03 09:20:30;;;;;;;0.98;0.98;;;;;;;;;;5053777;28;20229;-88
2022/06/03 09:23:01;;;;;;;1.00;1.00;;;;;;;;;;5056122;28;20281;-87
2022/06/03 09:25:31;;;;;;;0.98;0.98;;;;;;;;;;5054996;28;20218;-85
2022/06/03 09:27:59;;;;;;;0.80;0.80;;;;;;;;;;5054638;28;20213;-87
2022/06/03 09:30:32;;;;;;;1.00;1.00;;;;;;;;;;5053795;28;20225;-88
2022/06/03 09:33:02;;;;;;;1.30;1.23;;;;;;;;;;5054488;28;20202;-86
2022/06/03 09:35:30;;;;;;;1.23;0.90;;;;;;;;;;5053485;28;20201;-88
2022/06/03 09:38:00;;;;;;;1.00;1.00;;;;;;;;;;5054223;28;20545;-87
2022/06/03 09:40:32;;;;;;;0.90;0.90;;;;;;;;;;5055269;28;20271;-87
2022/06/03 09:43:04;;;;;;;1.38;0.85;;;;;;;;;;5055516;28;20300;-86
2022/06/03 09:45:33;;;;;;;1.13;1.02;;;;;;;;;;5056102;28;20197;-88
2022/06/03 09:48:03;;;;;;;1.30;1.23;;;;;;;;;;5045166;28;20209;-90
2022/06/03 09:50:31;;;;;;;0.82;0.82;;;;;;;;;;5052588;28;20711;-88
2022/06/03 09:53:03;;;;;;;0.90;0.90;;;;;;;;;;5053436;28;20306;-88
2022/06/03 09:55:34;;;;;;;0.80;0.80;;;;;;;;;;5053279;28;20198;-88
2022/06/03 09:58:03;;;;;;;0.77;0.77;;;;;;;;;;5053858;28;20289;-89
2022/06/03 10:00:42;;;;;;;0.98;0.98;;;;;;;;;;5053737;28;20233;-89
2022/06/03 10:03:10;;;;;;;1.15;0.73;;;;;;;;;;5053950;28;20345;-88
2022/06/03 10:05:38;;;;;;;0.95;0.95;;;;;;;;;;5053251;28;20197;-88
2022/06/03 10:08:08;;;;;;;1.20;1.10;;;;;;;;;;5053453;28;20233;-87
2022/06/03 10:13:21;;;;;;;1.52;0.90;;;;;;;;;;5052298;28;20287;-87
2022/06/03 10:15:56;;;;;;;1.38;0.93;;;;;;;;;;5053125;28;20241;-86
2022/06/03 10:18:29;;;;;;;1.35;1.35;;;;;;;;;;5039162;28;20201;-87
2022/06/03 10:20:59;;;;;;;0.80;0.80;;;;;;;;;;5041116;28;20758;-87
2022/06/03 10:23:32;;;;;;;0.80;0.80;;;;;;;;;;5056716;28;20292;-88
2022/06/03 10:26:01;;;;;;;0.80;0.80;;;;;;;;;;5056175;28;20567;-87
2022/06/03 10:28:34;;;;;;;0.50;0.50;;;;;;;;;;5055666;28;20256;-86
2022/06/03 10:31:07;;;;;;;0.80;0.80;;;;;;;;;;5056251;28;20528;-87
2022/06/03 10:33:35;;;;;;;1.67;0.73;;;;;;;;;;5056161;28;20603;-87
2022/06/03 10:36:05;;;;;;;1.23;1.23;;;;;;;;;;5056004;28;20237;-86
2022/06/03 10:38:36;;;;;;;0.85;0.85;;;;;;;;;;5055584;28;20205;-88
2022/06/03 10:41:06;;;;;;;1.00;1.00;;;;;;;;;;5055955;28;20214;-87
2022/06/03 10:43:36;;;;;;;3.58;1.20;;;;;;;;;;5056347;28;20228;-86
2022/06/03 10:46:17;;;;;;;0.80;0.80;;;;;;;;;;5057326;28;20224;-87
2022/06/03 10:48:46;;;;;;;1.55;0.70;;;;;;;;;;5055341;28;20225;-87
2022/06/03 10:51:18;;;;;;;0.90;0.90;;;;;;;;;;5056749;28;20197;-89
2022/06/03 11:02:47;;;;;;;1.10;1.10;;;;;;;;;;4994405;28;20203;-87
2022/06/03 11:05:21;;;;;;;0.90;0.90;;;;;;;;;;4993705;28;20212;-88
2022/06/03 11:08:02;;;;;;;1.23;1.13;;;;;;;;;;5023800;28;20247;-88
2022/06/03 11:10:36;;;;;;;0.98;0.98;;;;;;;;;;5055158;28;20276;-87
2022/06/03 11:13:07;;;;;;;1.20;1.20;;;;;;;;;;5054592;28;20202;-87
2022/06/03 11:15:36;;;;;;;0.90;0.90;;;;;;;;;;5054442;28;20244;-86
2022/06/03 11:18:18;;;;;;;0.80;0.80;;;;;;;;;;5054385;28;20324;-87
2022/06/03 11:20:48;;;;;;;1.85;0.90;;;;;;;;;;5047975;28;20229;-87
2022/06/03 11:23:16;;;;;;;1.00;0.95;;;;;;;;;;5047629;28;20244;-88
2022/06/03 11:25:47;;;;;;;1.00;1.00;;;;;;;;;;5047881;28;20210;-88
2022/06/03 11:28:18;;;;;;;0.88;0.88;;;;;;;;;;5054300;28;20208;-88
2022/06/03 11:30:51;;;;;;;1.00;1.00;;;;;;;;;;5054391;28;20222;-88
2022/06/03 11:33:25;;;;;;;0.70;0.70;;;;;;;;;;5053628;28;20220;-88
2022/06/03 11:35:57;;;;;;;0.55;0.55;;;;;;;;;;5054156;28;20296;-88
2022/06/03 11:38:30;;;;;;;0.80;0.80;;;;;;;;;;5053930;28;20255;-88
2022/06/03 11:41:03;;;;;;;1.08;0.98;;;;;;;;;;5057076;28;20228;-88
2022/06/03 11:43:36;;;;;;;0.70;0.70;;;;;;;;;;5055137;28;20245;-87
2022/06/03 11:46:07;;;;;;;0.80;0.80;;;;;;;;;;5054282;28;20209;-86
2022/06/03 11:48:38;;;;;;;0.88;0.88;;;;;;;;;;5053956;28;20288;-88
2022/06/03 11:51:08;;;;;;;1.05;1.02;;;;;;;;;;5053878;28;20301;-88
2022/06/03 11:53:41;;;;;;;0.90;0.90;;;;;;;;;;5046981;28;20204;-88
2022/06/03 11:56:11;;;;;;;0.85;0.85;;;;;;;;;;5048151;28;20209;-88
2022/06/03 11:59:01;;;;;;;0.90;0.90;;;;;;;;;;5054123;28;20293;-88
2022/06/03 12:01:38;;;;;;;0.98;0.95;;;;;;;;;;5054157;28;20222;-88
2022/06/03 12:04:18;;;;;;;0.90;0.90;;;;;;;;;;5054595;28;20239;-88
2022/06/03 12:06:49;;;;;;;0.88;0.88;;;;;;;;;;5054251;28;20227;-88
2022/06/03 12:09:32;;;;;;;1.00;1.00;;;;;;;;;;5053958;28;20659;-87
2022/06/03 12:14:58;;;;;;;0.82;0.82;;;;;;;;;;5054046;28;20221;-88
2022/06/03 12:17:32;;;;;;;1.00;1.00;;;;;;;;;;5054123;28;20236;-87
2022/06/03 12:20:38;;;;;;;1.15;1.15;;;;;;;;;;5053834;28;20656;-88
2022/06/03 12:23:52;;;;;;;0.70;0.70;;;;;;;;;;5054148;28;20229;-87
2022/06/03 12:26:24;;;;;;;0.93;0.90;;;;;;;;;;5019349;28;20240;-88
2022/06/03 12:28:53;;;;;;;0.90;0.90;;;;;;;;;;5054006;28;20217;-88
2022/06/03 12:31:36;;;;;;;0.80;0.80;;;;;;;;;;5054141;28;20279;-87
2022/06/03 12:34:20;;;;;;;0.80;0.80;;;;;;;;;;5054058;28;20194;-88
2022/06/03 12:37:01;;;;;;;0.90;0.90;;;;;;;;;;5053397;28;20189;-88
2022/06/03 12:39:32;;;;;;;0.90;0.90;;;;;;;;;;5053425;28;20224;-88
2022/06/03 12:42:37;;;;;;;1.20;1.10;;;;;;;;;;5033564;28;20698;-87
2022/06/03 12:45:35;;;;;;;1.27;1.10;;;;;;;;;;5033451;28;20590;-87
2022/06/03 12:48:04;;;;;;;1.00;1.00;;;;;;;;;;5033496;28;20236;-87
2022/06/03 12:51:25;;;;;;;0.95;0.95;;;;;;;;;;5033139;28;20230;-87
2022/06/03 12:53:56;;;;;;;0.82;0.80;;;;;;;;;;5033286;28;20206;-88
2022/06/03 12:56:41;;;;;;;0.90;0.90;;;;;;;;;;5033904;28;20237;-87
2022/06/03 12:59:27;;;;;;;0.82;0.82;;;;;;;;;;5034118;28;20226;-87
2022/06/03 13:02:03;;;;;;;0.65;0.65;;;;;;;;;;5033258;28;20206;-87
2022/06/03 13:05:25;;;;;;;0.80;0.80;;;;;;;;;;5033449;28;20615;-85
2022/06/03 13:08:04;;;;;;;1.00;0.93;;;;;;;;;;5002703;28;20198;-87
2022/06/03 13:10:57;;;;;;;1.05;1.00;;;;;;;;;;5033353;28;20292;-88
2022/06/03 13:13:51;;;;;;;0.82;0.82;;;;;;;;;;5033361;28;20237;-87
2022/06/03 13:16:46;;;;;;;0.80;0.80;;;;;;;;;;5033197;28;20270;-88
2022/06/03 13:19:58;;;;;;;0.80;0.80;;;;;;;;;;5033263;28;20218;-88
2022/06/03 13:22:51;;;;;;;1.33;1.33;;;;;;;;;;5033391;28;20641;-88
2022/06/03 13:25:35;;;;;;;0.90;0.90;;;;;;;;;;5033920;28;20241;-89
2022/06/03 13:28:37;;;;;;;2.85;1.10;;;;;;;;;;5034140;28;20221;-87
2022/06/03 13:31:16;;;;;;;1.50;1.40;;;;;;;;;;5033525;28;20186;-89
2022/06/03 13:34:22;;;;;;;1.13;1.13;;;;;;;;;;5033455;28;20197;-88
2022/06/03 13:37:12;;;;;;;1.10;1.10;;;;;;;;;;5033825;28;20639;-89
2022/06/03 13:40:09;;;;;;;1.65;1.40;;;;;;;;;;5032873;28;20254;-88
2022/06/03 13:43:03;;;;;;;1.10;1.10;;;;;;;;;;5042812;28;20249;-88
2022/06/03 13:45:51;;;;;;;0.98;0.98;;;;;;;;;;5053065;28;20243;-88
2022/06/03 13:48:25;;;;;;;1.08;1.08;;;;;;;;;;5053550;28;20273;-88
2022/06/03 13:50:54;;;;;;;1.42;1.33;;;;;;;;;;5053068;28;20259;-88
2022/06/03 13:53:30;;;;;;;1.02;1.02;;;;;;;;;;5052923;28;20236;-88
2022/06/03 13:56:05;;;;;;;0.95;0.95;;;;;;;;;;5056106;28;20209;-89
2022/06/03 13:58:37;;;;;;;0.90;0.90;;;;;;;;;;5056791;28;20182;-88
2022/06/03 14:01:08;;;;;;;1.02;1.02;;;;;;;;;;5057068;28;20198;-88
2022/06/03 14:03:41;;;;;;;1.00;1.00;;;;;;;;;;5083352;22;20283;-82
2022/06/03 14:06:16;;;;;;;1.00;1.00;;;;;;;;;;5058479;28;20245;-82
2022/06/03 14:08:46;;;;;;;1.00;1.00;;;;;;;;;;5058283;28;20201;-85
2022/06/03 14:11:17;;;;;;;0.88;0.88;;;;;;;;;;5057747;28;20207;-84
2022/06/03 14:13:55;;;;;;;0.98;0.98;;;;;;;;;;5056860;28;20225;-85
2022/06/03 14:16:28;;;;;;;1.00;1.00;;;;;;;;;;5051897;28;20212;-84
2022/06/03 14:19:03;;;;;;;1.33;1.30;;;;;;;;;;5058911;28;20241;-84
2022/06/03 14:21:38;;;;;;;0.90;0.90;;;;;;;;;;5059233;28;20328;-84
2022/06/03 14:24:11;;;;;;;1.08;1.08;;;;;;;;;;5061737;28;20243;-84
2022/06/03 14:26:52;;;;;;;1.23;1.23;;;;;;;;;;5058980;28;20237;-83
2022/06/03 14:29:25;;;;;;;1.05;1.05;;;;;;;;;;5058811;28;20248;-83
2022/06/03 14:31:56;;;;;;;1.20;1.20;;;;;;;;;;5057908;28;20253;-85
2022/06/03 14:34:27;;;;;;;0.93;0.93;;;;;;;;;;5057294;28;20209;-84
2022/06/03 14:36:58;;;;;;;1.27;1.20;;;;;;;;;;5051602;28;20247;-84
2022/06/03 14:39:28;;;;;;;1.88;1.70;;;;;;;;;;5058142;28;20205;-83
2022/06/03 14:41:57;;;;;;;2.45;1.50;;;;;;;;;;5057513;28;20257;-84
2022/06/03 14:44:29;;;;;;;1.17;1.17;;;;;;;;;;5056821;28;20645;-83
2022/06/03 14:47:01;;;;;;;1.00;1.00;;;;;;;;;;5056014;28;20197;-84
2022/06/03 14:49:34;;;;;;;1.02;1.02;;;;;;;;;;5059173;28;20233;-84
2022/06/03 14:52:05;;;;;;;0.95;0.95;;;;;;;;;;5054962;28;20772;-84
2022/06/03 14:54:49;;;;;;;0.90;0.90;;;;;;;;;;5055187;28;20302;-84
2022/06/03 14:57:23;;;;;;;1.45;1.35;;;;;;;;;;5055466;28;20300;-84
2022/06/03 15:00:20;;;;;;;1.10;1.10;;;;;;;;;;5049121;28;20241;-83
2022/06/03 15:02:54;;;;;;;0.98;0.98;;;;;;;;;;5052917;28;20377;-84
2022/06/03 15:05:27;;;;;;;1.10;1.10;;;;;;;;;;5055395;28;20206;-84
2022/06/03 15:08:00;;;;;;;1.30;1.30;;;;;;;;;;5054800;28;20197;-84
2022/06/03 15:10:29;;;;;;;0.93;0.93;;;;;;;;;;5055675;28;20201;-83
2022/06/03 15:13:00;;;;;;;1.10;1.10;;;;;;;;;;5053933;28;20312;-85
2022/06/03 15:15:33;;;;;;;1.98;1.25;;;;;;;;;;5049252;28;20206;-85
2022/06/03 15:18:14;;;;;;;1.00;1.00;;;;;;;;;;5054570;28;20697;-83
2022/06/03 15:20:42;;;;;;;1.00;1.00;;;;;;;;;;5054780;28;20210;-84
2022/06/03 15:23:09;;;;;;;2.05;0.93;;;;;;;;;;5053916;28;20764;-85
2022/06/03 15:25:42;;;;;;;1.10;1.10;;;;;;;;;;5055214;28;20300;-84
2022/06/03 15:28:11;;;;;;;0.90;0.90;;;;;;;;;;5051157;28;20271;-84
2022/06/03 15:30:51;;;;;;;0.98;0.98;;;;;;;;;;5051935;28;20714;-85
2022/06/03 15:33:22;;;;;;;1.13;1.00;;;;;;;;;;5054036;28;20257;-86
2022/06/03 15:35:59;;;;;;;1.25;1.00;;;;;;;;;;5054227;28;20241;-85
2022/06/03 15:38:30;;;;;;;2.13;1.45;;;;;;;;;;5047999;28;20201;-84
2022/06/03 15:41:01;;;;;;;1.20;1.20;;;;;;;;;;5054754;28;20244;-84
2022/06/03 15:43:34;;;;;;;1.20;1.20;;;;;;;;;;5053116;28;20229;-83
2022/06/03 15:46:04;;;;;;;1.08;1.08;;;;;;;;;;5054519;28;20264;-84
2022/06/03 15:48:33;;;;;;;1.00;1.00;;;;;;;;;;5053716;28;20257;-84
2022/06/03 15:51:06;;;;;;;1.02;1.02;;;;;;;;;;5053711;28;20237;-85
2022/06/03 15:53:36;;;;;;;0.90;0.90;;;;;;;;;;5053237;28;20276;-84
2022/06/03 15:56:27;;;;;;;0.90;0.90;;;;;;;;;;5053544;28;20201;-84
2022/06/03 15:59:14;;;;;;;1.00;1.00;;;;;;;;;;5053974;28;20198;-85
2022/06/03 16:01:57;;;;;;;1.00;1.00;;;;;;;;;;5053275;28;20256;-84
2022/06/03 16:04:36;;;;;;;1.00;1.00;;;;;;;;;;5053317;28;20308;-85
2022/06/03 16:07:10;;;;;;;1.10;1.00;;;;;;;;;;5053614;28;20201;-84
2022/06/03 16:09:47;;;;;;;0.90;0.90;;;;;;;;;;5053613;28;20240;-84
2022/06/03 16:12:23;;;;;;;1.10;1.10;;;;;;;;;;5052940;28;20261;-84
2022/06/03 16:15:07;;;;;;;0.80;0.80;;;;;;;;;;5053290;28;20666;-85
2022/06/03 16:17:52;;;;;;;1.42;1.33;;;;;;;;;;5052930;28;20213;-84
2022/06/03 16:20:21;;;;;;;0.90;0.90;;;;;;;;;;5047046;28;20270;-85
2022/06/03 16:23:32;;;;;;;1.02;1.02;;;;;;;;;;5052555;28;20677;-82
2022/06/03 16:26:06;;;;;;;1.13;1.13;;;;;;;;;;5046774;28;20209;-84
2022/06/03 16:29:01;;;;;;;1.10;1.10;;;;;;;;;;5047242;28;20894;-84
2022/06/03 16:31:37;;;;;;;0.80;0.80;;;;;;;;;;5052631;28;20618;-83
2022/06/03 16:34:16;;;;;;;1.02;1.02;;;;;;;;;;5052038;28;20220;-85
2022/06/03 16:36:49;;;;;;;0.90;0.90;;;;;;;;;;5052254;28;20263;-85
2022/06/03 16:39:40;;;;;;;1.25;1.15;;;;;;;;;;5093359;27;20629;-86
2022/06/03 16:42:18;;;;;;;1.05;1.05;;;;;;;;;;5088870;28;20220;-85
2022/06/03 16:44:58;;;;;;;0.80;0.80;;;;;;;;;;5079723;28;20197;-85
2022/06/03 16:47:34;;;;;;;1.10;1.10;;;;;;;;;;5082864;28;20234;-85
2022/06/03 16:50:10;;;;;;;1.10;1.10;;;;;;;;;;5085255;28;20208;-85
2022/06/03 16:52:43;;;;;;;1.10;1.10;;;;;;;;;;5088791;28;20274;-84
2022/06/03 16:55:18;;;;;;;1.00;1.00;;;;;;;;;;5089693;28;20208;-85
2022/06/03 16:57:58;;;;;;;1.10;1.10;;;;;;;;;;5089351;28;20669;-85
2022/06/03 17:00:27;;;;;;;1.13;1.10;;;;;;;;;;5082716;28;20303;-85
2022/06/03 17:03:01;;;;;;;1.92;1.58;;;;;;;;;;5088857;28;20225;-85